sensor_id;sensor_type;location;lat;lon;timestamp;P1;durP1;ratioP1;P2;durP2;ratioP2
76576;SDS011;65441;44.748;37.600;2024-03-02T00:01:52;9.43;;;3.30;;
76576;SDS011;65441;44.748;37.600;2024-03-02T00:04:22;9.93;;;3.42;;
76576;SDS011;65441;44.748;37.600;2024-03-02T00:06:51;8.40;;;3.08;;
76576;SDS011;65441;44.748;37.600;2024-03-02T00:09:20;8.10;;;3.22;;
76576;SDS011;65441;44.748;37.600;2024-03-02T00:11:49;16.55;;;3.55;;
76576;SDS011;65441;44.748;37.600;2024-03-02T00:14:18;7.93;;;2.55;;
76576;SDS011;65441;44.748;37.600;2024-03-02T00:16:47;7.28;;;2.80;;
76576;SDS011;65441;44.748;37.600;2024-03-02T00:19:15;7.22;;;2.65;;
76576;SDS011;65441;44.748;37.600;2024-03-02T00:21:45;9.63;;;2.85;;
76576;SDS011;65441;44.748;37.600;2024-03-02T00:24:17;9.00;;;2.50;;
76576;SDS011;65441;44.748;37.600;2024-03-02T00:26:48;7.15;;;2.80;;
76576;SDS011;65441;44.748;37.600;2024-03-02T00:29:17;8.20;;;2.80;;
76576;SDS011;65441;44.748;37.600;2024-03-02T00:31:47;10.57;;;3.65;;
76576;SDS011;65441;44.748;37.600;2024-03-02T00:34:15;8.57;;;2.70;;
76576;SDS011;65441;44.748;37.600;2024-03-02T00:36:47;9.40;;;2.90;;
76576;SDS011;65441;44.748;37.600;2024-03-02T00:39:15;8.15;;;2.67;;
76576;SDS011;65441;44.748;37.600;2024-03-02T00:41:44;7.40;;;2.45;;
76576;SDS011;65441;44.748;37.600;2024-03-02T00:44:14;7.88;;;2.72;;
76576;SDS011;65441;44.748;37.600;2024-03-02T00:46:43;16.30;;;2.58;;
76576;SDS011;65441;44.748;37.600;2024-03-02T00:49:12;8.30;;;3.03;;
76576;SDS011;65441;44.748;37.600;2024-03-02T00:51:48;8.43;;;2.30;;
76576;SDS011;65441;44.748;37.600;2024-03-02T00:54:19;9.23;;;2.22;;
76576;SDS011;65441;44.748;37.600;2024-03-02T00:56:50;14.07;;;2.63;;
76576;SDS011;65441;44.748;37.600;2024-03-02T00:59:18;7.85;;;2.70;;
76576;SDS011;65441;44.748;37.600;2024-03-02T01:01:47;5.65;;;2.10;;
76576;SDS011;65441;44.748;37.600;2024-03-02T01:04:15;7.57;;;2.03;;
76576;SDS011;65441;44.748;37.600;2024-03-02T01:06:48;9.70;;;2.78;;
76576;SDS011;65441;44.748;37.600;2024-03-02T01:09:16;5.85;;;1.80;;
76576;SDS011;65441;44.748;37.600;2024-03-02T01:11:45;9.43;;;2.00;;
76576;SDS011;65441;44.748;37.600;2024-03-02T01:14:13;8.48;;;2.45;;
76576;SDS011;65441;44.748;37.600;2024-03-02T01:16:42;4.45;;;1.50;;
76576;SDS011;65441;44.748;37.600;2024-03-02T01:19:10;6.50;;;2.05;;
76576;SDS011;65441;44.748;37.600;2024-03-02T01:21:39;6.50;;;1.80;;
76576;SDS011;65441;44.748;37.600;2024-03-02T01:24:09;6.25;;;1.95;;
76576;SDS011;65441;44.748;37.600;2024-03-02T01:26:37;7.85;;;2.00;;
76576;SDS011;65441;44.748;37.600;2024-03-02T01:29:06;4.50;;;1.75;;
76576;SDS011;65441;44.748;37.600;2024-03-02T01:31:34;7.03;;;1.88;;
76576;SDS011;65441;44.748;37.600;2024-03-02T01:34:03;5.50;;;1.50;;
76576;SDS011;65441;44.748;37.600;2024-03-02T01:36:31;5.75;;;1.55;;
76576;SDS011;65441;44.748;37.600;2024-03-02T01:39:00;7.00;;;1.75;;
76576;SDS011;65441;44.748;37.600;2024-03-02T01:41:29;4.60;;;1.35;;
76576;SDS011;65441;44.748;37.600;2024-03-02T01:43:58;4.85;;;1.50;;
76576;SDS011;65441;44.748;37.600;2024-03-02T01:46:26;4.88;;;1.52;;
76576;SDS011;65441;44.748;37.600;2024-03-02T01:48:55;7.63;;;1.35;;
76576;SDS011;65441;44.748;37.600;2024-03-02T01:51:24;4.25;;;1.40;;
76576;SDS011;65441;44.748;37.600;2024-03-02T01:53:52;5.35;;;1.67;;
76576;SDS011;65441;44.748;37.600;2024-03-02T01:56:21;6.53;;;1.70;;
76576;SDS011;65441;44.748;37.600;2024-03-02T01:58:51;6.22;;;1.48;;
76576;SDS011;65441;44.748;37.600;2024-03-02T02:01:20;4.15;;;1.48;;
76576;SDS011;65441;44.748;37.600;2024-03-02T02:03:48;6.65;;;1.63;;
76576;SDS011;65441;44.748;37.600;2024-03-02T02:06:17;6.97;;;1.70;;
76576;SDS011;65441;44.748;37.600;2024-03-02T02:08:45;5.60;;;1.75;;
76576;SDS011;65441;44.748;37.600;2024-03-02T02:11:14;3.65;;;1.25;;
76576;SDS011;65441;44.748;37.600;2024-03-02T02:13:43;5.13;;;1.25;;
76576;SDS011;65441;44.748;37.600;2024-03-02T02:16:13;3.40;;;1.20;;
76576;SDS011;65441;44.748;37.600;2024-03-02T02:18:41;5.28;;;1.35;;
76576;SDS011;65441;44.748;37.600;2024-03-02T02:21:10;4.50;;;1.42;;
76576;SDS011;65441;44.748;37.600;2024-03-02T02:23:40;5.97;;;1.55;;
76576;SDS011;65441;44.748;37.600;2024-03-02T02:26:12;5.88;;;1.52;;
76576;SDS011;65441;44.748;37.600;2024-03-02T02:28:41;4.35;;;1.40;;
76576;SDS011;65441;44.748;37.600;2024-03-02T02:31:13;4.60;;;1.45;;
76576;SDS011;65441;44.748;37.600;2024-03-02T02:33:42;4.80;;;1.38;;
76576;SDS011;65441;44.748;37.600;2024-03-02T02:36:10;7.95;;;1.58;;
76576;SDS011;65441;44.748;37.600;2024-03-02T02:38:41;5.85;;;1.80;;
76576;SDS011;65441;44.748;37.600;2024-03-02T02:41:13;4.18;;;1.35;;
76576;SDS011;65441;44.748;37.600;2024-03-02T02:43:41;9.63;;;1.73;;
76576;SDS011;65441;44.748;37.600;2024-03-02T02:46:09;5.28;;;1.58;;
76576;SDS011;65441;44.748;37.600;2024-03-02T02:48:38;6.93;;;1.42;;
76576;SDS011;65441;44.748;37.600;2024-03-02T02:51:06;5.40;;;1.63;;
76576;SDS011;65441;44.748;37.600;2024-03-02T02:53:35;6.03;;;1.60;;
76576;SDS011;65441;44.748;37.600;2024-03-02T02:56:08;3.75;;;1.52;;
76576;SDS011;65441;44.748;37.600;2024-03-02T02:58:36;4.88;;;1.95;;
76576;SDS011;65441;44.748;37.600;2024-03-02T03:01:05;5.78;;;1.50;;
76576;SDS011;65441;44.748;37.600;2024-03-02T03:03:34;5.78;;;1.80;;
76576;SDS011;65441;44.748;37.600;2024-03-02T03:06:02;3.90;;;1.42;;
76576;SDS011;65441;44.748;37.600;2024-03-02T03:08:31;5.00;;;1.70;;
76576;SDS011;65441;44.748;37.600;2024-03-02T03:10:59;6.75;;;2.13;;
76576;SDS011;65441;44.748;37.600;2024-03-02T03:13:30;9.13;;;1.73;;
76576;SDS011;65441;44.748;37.600;2024-03-02T03:16:01;7.47;;;2.00;;
76576;SDS011;65441;44.748;37.600;2024-03-02T03:18:29;4.82;;;1.17;;
76576;SDS011;65441;44.748;37.600;2024-03-02T03:20:57;5.10;;;2.08;;
76576;SDS011;65441;44.748;37.600;2024-03-02T03:23:26;5.05;;;1.60;;
76576;SDS011;65441;44.748;37.600;2024-03-02T03:25:54;6.25;;;1.95;;
76576;SDS011;65441;44.748;37.600;2024-03-02T03:28:23;7.63;;;2.20;;
76576;SDS011;65441;44.748;37.600;2024-03-02T03:30:52;7.28;;;2.42;;
76576;SDS011;65441;44.748;37.600;2024-03-02T03:33:21;7.25;;;2.08;;
76576;SDS011;65441;44.748;37.600;2024-03-02T03:35:49;8.88;;;2.47;;
76576;SDS011;65441;44.748;37.600;2024-03-02T03:38:17;6.57;;;2.50;;
76576;SDS011;65441;44.748;37.600;2024-03-02T03:40:46;9.93;;;3.85;;
76576;SDS011;65441;44.748;37.600;2024-03-02T03:43:14;6.90;;;2.60;;
76576;SDS011;65441;44.748;37.600;2024-03-02T03:45:43;10.70;;;2.97;;
76576;SDS011;65441;44.748;37.600;2024-03-02T03:48:13;17.02;;;3.50;;
76576;SDS011;65441;44.748;37.600;2024-03-02T03:50:41;7.55;;;2.75;;
76576;SDS011;65441;44.748;37.600;2024-03-02T03:53:10;7.47;;;2.95;;
76576;SDS011;65441;44.748;37.600;2024-03-02T03:55:38;10.50;;;3.67;;
76576;SDS011;65441;44.748;37.600;2024-03-02T03:58:07;10.60;;;3.15;;
76576;SDS011;65441;44.748;37.600;2024-03-02T04:00:35;8.90;;;3.17;;
76576;SDS011;65441;44.748;37.600;2024-03-02T04:03:04;13.80;;;3.90;;
76576;SDS011;65441;44.748;37.600;2024-03-02T04:05:34;11.32;;;4.63;;
76576;SDS011;65441;44.748;37.600;2024-03-02T04:08:04;11.05;;;4.18;;
76576;SDS011;65441;44.748;37.600;2024-03-02T04:10:33;9.75;;;3.88;;
76576;SDS011;65441;44.748;37.600;2024-03-02T04:13:01;11.05;;;4.32;;
76576;SDS011;65441;44.748;37.600;2024-03-02T04:15:30;11.95;;;3.40;;
76576;SDS011;65441;44.748;37.600;2024-03-02T04:17:58;10.57;;;3.97;;
76576;SDS011;65441;44.748;37.600;2024-03-02T04:20:29;13.68;;;4.78;;
76576;SDS011;65441;44.748;37.600;2024-03-02T04:22:59;15.90;;;4.65;;
76576;SDS011;65441;44.748;37.600;2024-03-02T04:25:27;13.25;;;3.97;;
76576;SDS011;65441;44.748;37.600;2024-03-02T04:27:56;14.90;;;4.47;;
76576;SDS011;65441;44.748;37.600;2024-03-02T04:30:24;10.98;;;3.90;;
76576;SDS011;65441;44.748;37.600;2024-03-02T04:32:53;13.25;;;4.15;;
76576;SDS011;65441;44.748;37.600;2024-03-02T04:35:21;13.73;;;3.72;;
76576;SDS011;65441;44.748;37.600;2024-03-02T04:37:50;12.30;;;3.65;;
76576;SDS011;65441;44.748;37.600;2024-03-02T04:40:20;11.55;;;4.32;;
76576;SDS011;65441;44.748;37.600;2024-03-02T04:42:48;14.27;;;4.18;;
76576;SDS011;65441;44.748;37.600;2024-03-02T04:45:16;14.60;;;4.18;;
76576;SDS011;65441;44.748;37.600;2024-03-02T04:47:46;17.25;;;3.67;;
76576;SDS011;65441;44.748;37.600;2024-03-02T04:50:14;16.08;;;3.97;;
76576;SDS011;65441;44.748;37.600;2024-03-02T04:52:43;12.30;;;4.18;;
76576;SDS011;65441;44.748;37.600;2024-03-02T04:55:11;10.35;;;4.00;;
76576;SDS011;65441;44.748;37.600;2024-03-02T04:58:03;10.68;;;4.18;;
76576;SDS011;65441;44.748;37.600;2024-03-02T05:00:32;11.57;;;4.13;;
76576;SDS011;65441;44.748;37.600;2024-03-02T05:03:01;12.80;;;3.97;;
76576;SDS011;65441;44.748;37.600;2024-03-02T05:05:29;12.05;;;4.43;;
76576;SDS011;65441;44.748;37.600;2024-03-02T05:07:58;12.75;;;4.20;;
76576;SDS011;65441;44.748;37.600;2024-03-02T05:10:26;10.52;;;3.88;;
76576;SDS011;65441;44.748;37.600;2024-03-02T05:12:55;8.52;;;3.35;;
76576;SDS011;65441;44.748;37.600;2024-03-02T05:15:26;12.13;;;4.07;;
76576;SDS011;65441;44.748;37.600;2024-03-02T05:17:55;12.52;;;3.72;;
76576;SDS011;65441;44.748;37.600;2024-03-02T05:20:25;10.63;;;3.47;;
76576;SDS011;65441;44.748;37.600;2024-03-02T05:22:54;11.15;;;4.07;;
76576;SDS011;65441;44.748;37.600;2024-03-02T05:25:22;11.98;;;4.00;;
76576;SDS011;65441;44.748;37.600;2024-03-02T05:27:51;11.10;;;4.20;;
76576;SDS011;65441;44.748;37.600;2024-03-02T05:30:19;11.23;;;4.55;;
76576;SDS011;65441;44.748;37.600;2024-03-02T05:32:49;12.98;;;3.95;;
76576;SDS011;65441;44.748;37.600;2024-03-02T05:35:17;9.70;;;3.65;;
76576;SDS011;65441;44.748;37.600;2024-03-02T05:37:46;15.35;;;4.55;;
76576;SDS011;65441;44.748;37.600;2024-03-02T05:40:14;10.70;;;3.72;;
76576;SDS011;65441;44.748;37.600;2024-03-02T05:42:43;14.00;;;4.10;;
76576;SDS011;65441;44.748;37.600;2024-03-02T05:45:11;12.93;;;3.70;;
76576;SDS011;65441;44.748;37.600;2024-03-02T05:47:40;11.63;;;3.80;;
76576;SDS011;65441;44.748;37.600;2024-03-02T05:50:12;10.90;;;3.88;;
76576;SDS011;65441;44.748;37.600;2024-03-02T05:52:40;11.05;;;4.20;;
76576;SDS011;65441;44.748;37.600;2024-03-02T05:55:09;14.82;;;4.32;;
76576;SDS011;65441;44.748;37.600;2024-03-02T05:57:37;10.98;;;3.70;;
76576;SDS011;65441;44.748;37.600;2024-03-02T06:00:24;12.88;;;3.97;;
76576;SDS011;65441;44.748;37.600;2024-03-02T06:02:52;11.45;;;3.85;;
76576;SDS011;65441;44.748;37.600;2024-03-02T06:05:22;9.93;;;3.63;;
76576;SDS011;65441;44.748;37.600;2024-03-02T06:07:50;14.20;;;4.10;;
76576;SDS011;65441;44.748;37.600;2024-03-02T06:10:19;12.68;;;3.85;;
76576;SDS011;65441;44.748;37.600;2024-03-02T06:12:47;11.05;;;4.30;;
76576;SDS011;65441;44.748;37.600;2024-03-02T06:15:15;19.35;;;4.13;;
76576;SDS011;65441;44.748;37.600;2024-03-02T06:17:45;11.50;;;4.03;;
76576;SDS011;65441;44.748;37.600;2024-03-02T06:20:13;10.13;;;3.58;;
76576;SDS011;65441;44.748;37.600;2024-03-02T06:22:43;11.63;;;3.63;;
76576;SDS011;65441;44.748;37.600;2024-03-02T06:25:11;10.45;;;4.15;;
76576;SDS011;65441;44.748;37.600;2024-03-02T06:27:43;12.23;;;3.65;;
76576;SDS011;65441;44.748;37.600;2024-03-02T06:30:12;12.45;;;4.32;;
76576;SDS011;65441;44.748;37.600;2024-03-02T06:32:40;12.30;;;3.92;;
76576;SDS011;65441;44.748;37.600;2024-03-02T06:35:09;10.60;;;3.53;;
76576;SDS011;65441;44.748;37.600;2024-03-02T06:37:38;8.48;;;3.03;;
76576;SDS011;65441;44.748;37.600;2024-03-02T06:40:09;12.77;;;3.72;;
76576;SDS011;65441;44.748;37.600;2024-03-02T06:42:40;11.43;;;3.70;;
76576;SDS011;65441;44.748;37.600;2024-03-02T06:45:09;10.68;;;3.70;;
76576;SDS011;65441;44.748;37.600;2024-03-02T06:47:40;11.38;;;3.63;;
76576;SDS011;65441;44.748;37.600;2024-03-02T06:50:09;10.05;;;4.05;;
76576;SDS011;65441;44.748;37.600;2024-03-02T06:52:37;15.52;;;4.13;;
76576;SDS011;65441;44.748;37.600;2024-03-02T06:55:06;13.40;;;3.50;;
76576;SDS011;65441;44.748;37.600;2024-03-02T06:57:37;15.32;;;4.10;;
76576;SDS011;65441;44.748;37.600;2024-03-02T07:00:21;9.85;;;3.33;;
76576;SDS011;65441;44.748;37.600;2024-03-02T07:02:52;14.20;;;3.88;;
76576;SDS011;65441;44.748;37.600;2024-03-02T07:05:20;13.00;;;4.72;;
76576;SDS011;65441;44.748;37.600;2024-03-02T07:07:51;11.98;;;4.43;;
76576;SDS011;65441;44.748;37.600;2024-03-02T07:10:19;13.38;;;4.63;;
76576;SDS011;65441;44.748;37.600;2024-03-02T07:12:49;11.55;;;4.50;;
76576;SDS011;65441;44.748;37.600;2024-03-02T07:15:17;10.07;;;3.50;;
76576;SDS011;65441;44.748;37.600;2024-03-02T07:18:11;12.70;;;4.22;;
76576;SDS011;65441;44.748;37.600;2024-03-02T07:20:39;13.63;;;4.63;;
76576;SDS011;65441;44.748;37.600;2024-03-02T07:23:09;12.27;;;4.57;;
76576;SDS011;65441;44.748;37.600;2024-03-02T07:25:38;11.05;;;4.65;;
76576;SDS011;65441;44.748;37.600;2024-03-02T07:28:09;10.05;;;3.88;;
76576;SDS011;65441;44.748;37.600;2024-03-02T07:30:38;11.07;;;3.78;;
76576;SDS011;65441;44.748;37.600;2024-03-02T07:33:06;12.27;;;3.95;;
76576;SDS011;65441;44.748;37.600;2024-03-02T07:35:36;12.77;;;3.45;;
76576;SDS011;65441;44.748;37.600;2024-03-02T07:38:04;8.93;;;3.42;;
76576;SDS011;65441;44.748;37.600;2024-03-02T07:40:32;9.15;;;3.33;;
76576;SDS011;65441;44.748;37.600;2024-03-02T07:43:00;9.73;;;3.80;;
76576;SDS011;65441;44.748;37.600;2024-03-02T07:45:29;10.80;;;4.30;;
76576;SDS011;65441;44.748;37.600;2024-03-02T07:47:58;10.57;;;3.58;;
76576;SDS011;65441;44.748;37.600;2024-03-02T07:50:56;11.68;;;3.97;;
76576;SDS011;65441;44.748;37.600;2024-03-02T07:53:24;13.60;;;4.47;;
76576;SDS011;65441;44.748;37.600;2024-03-02T07:55:52;10.05;;;4.10;;
76576;SDS011;65441;44.748;37.600;2024-03-02T07:58:22;9.05;;;3.53;;
76576;SDS011;65441;44.748;37.600;2024-03-02T08:00:52;12.60;;;4.13;;
76576;SDS011;65441;44.748;37.600;2024-03-02T08:03:20;11.77;;;4.85;;
76576;SDS011;65441;44.748;37.600;2024-03-02T08:05:48;15.23;;;4.78;;
76576;SDS011;65441;44.748;37.600;2024-03-02T08:08:17;8.90;;;4.10;;
76576;SDS011;65441;44.748;37.600;2024-03-02T08:10:45;10.23;;;4.43;;
76576;SDS011;65441;44.748;37.600;2024-03-02T08:13:13;15.27;;;4.45;;
76576;SDS011;65441;44.748;37.600;2024-03-02T08:15:41;14.30;;;5.25;;
76576;SDS011;65441;44.748;37.600;2024-03-02T08:18:11;13.68;;;4.80;;
76576;SDS011;65441;44.748;37.600;2024-03-02T08:20:39;12.05;;;4.70;;
76576;SDS011;65441;44.748;37.600;2024-03-02T08:23:08;13.18;;;5.15;;
76576;SDS011;65441;44.748;37.600;2024-03-02T08:25:36;12.23;;;4.60;;
76576;SDS011;65441;44.748;37.600;2024-03-02T08:28:04;13.05;;;4.90;;
76576;SDS011;65441;44.748;37.600;2024-03-02T08:30:33;11.30;;;5.03;;
76576;SDS011;65441;44.748;37.600;2024-03-02T08:33:04;12.63;;;5.57;;
76576;SDS011;65441;44.748;37.600;2024-03-02T08:35:38;13.43;;;5.25;;
76576;SDS011;65441;44.748;37.600;2024-03-02T08:38:08;15.52;;;5.95;;
76576;SDS011;65441;44.748;37.600;2024-03-02T08:40:36;14.65;;;5.10;;
76576;SDS011;65441;44.748;37.600;2024-03-02T08:43:04;15.57;;;5.55;;
76576;SDS011;65441;44.748;37.600;2024-03-02T08:45:33;13.60;;;5.22;;
76576;SDS011;65441;44.748;37.600;2024-03-02T08:48:01;17.35;;;5.50;;
76576;SDS011;65441;44.748;37.600;2024-03-02T08:50:30;12.90;;;4.90;;
76576;SDS011;65441;44.748;37.600;2024-03-02T08:53:00;12.55;;;4.80;;
76576;SDS011;65441;44.748;37.600;2024-03-02T08:55:28;11.77;;;4.97;;
76576;SDS011;65441;44.748;37.600;2024-03-02T08:57:56;13.57;;;5.55;;
76576;SDS011;65441;44.748;37.600;2024-03-02T09:00:24;13.82;;;4.93;;
76576;SDS011;65441;44.748;37.600;2024-03-02T09:02:52;15.48;;;6.35;;
76576;SDS011;65441;44.748;37.600;2024-03-02T09:05:21;16.05;;;5.47;;
76576;SDS011;65441;44.748;37.600;2024-03-02T09:07:49;20.27;;;6.07;;
76576;SDS011;65441;44.748;37.600;2024-03-02T09:10:18;15.18;;;6.03;;
76576;SDS011;65441;44.748;37.600;2024-03-02T09:12:46;15.05;;;6.28;;
76576;SDS011;65441;44.748;37.600;2024-03-02T09:15:15;15.05;;;5.93;;
76576;SDS011;65441;44.748;37.600;2024-03-02T09:17:43;16.08;;;5.18;;
76576;SDS011;65441;44.748;37.600;2024-03-02T09:20:12;11.85;;;5.20;;
76576;SDS011;65441;44.748;37.600;2024-03-02T09:22:40;14.75;;;5.88;;
76576;SDS011;65441;44.748;37.600;2024-03-02T09:25:08;11.70;;;5.25;;
76576;SDS011;65441;44.748;37.600;2024-03-02T09:27:38;19.73;;;5.85;;
76576;SDS011;65441;44.748;37.600;2024-03-02T09:30:07;13.85;;;5.82;;
76576;SDS011;65441;44.748;37.600;2024-03-02T09:32:36;13.65;;;6.10;;
76576;SDS011;65441;44.748;37.600;2024-03-02T09:35:05;14.93;;;6.32;;
76576;SDS011;65441;44.748;37.600;2024-03-02T09:37:34;12.20;;;5.30;;
76576;SDS011;65441;44.748;37.600;2024-03-02T09:40:02;15.77;;;5.63;;
76576;SDS011;65441;44.748;37.600;2024-03-02T09:42:32;12.52;;;5.63;;
76576;SDS011;65441;44.748;37.600;2024-03-02T09:45:02;15.65;;;6.43;;
76576;SDS011;65441;44.748;37.600;2024-03-02T09:47:30;13.02;;;5.88;;
76576;SDS011;65441;44.748;37.600;2024-03-02T09:49:58;13.95;;;6.57;;
76576;SDS011;65441;44.748;37.600;2024-03-02T09:52:27;13.90;;;5.93;;
76576;SDS011;65441;44.748;37.600;2024-03-02T09:54:55;12.20;;;4.93;;
76576;SDS011;65441;44.748;37.600;2024-03-02T09:57:23;11.13;;;5.25;;
76576;SDS011;65441;44.748;37.600;2024-03-02T09:59:52;12.50;;;5.18;;
76576;SDS011;65441;44.748;37.600;2024-03-02T10:02:21;13.10;;;6.03;;
76576;SDS011;65441;44.748;37.600;2024-03-02T10:04:49;14.07;;;4.53;;
76576;SDS011;65441;44.748;37.600;2024-03-02T10:07:18;12.90;;;4.55;;
76576;SDS011;65441;44.748;37.600;2024-03-02T10:09:47;11.55;;;4.70;;
76576;SDS011;65441;44.748;37.600;2024-03-02T10:12:18;14.65;;;5.60;;
76576;SDS011;65441;44.748;37.600;2024-03-02T10:14:46;13.00;;;5.38;;
76576;SDS011;65441;44.748;37.600;2024-03-02T10:17:17;12.05;;;3.97;;
76576;SDS011;65441;44.748;37.600;2024-03-02T10:19:47;12.45;;;4.72;;
76576;SDS011;65441;44.748;37.600;2024-03-02T10:22:15;12.52;;;5.60;;
76576;SDS011;65441;44.748;37.600;2024-03-02T10:24:43;13.35;;;5.07;;
76576;SDS011;65441;44.748;37.600;2024-03-02T10:27:15;12.35;;;5.15;;
76576;SDS011;65441;44.748;37.600;2024-03-02T10:29:45;14.27;;;5.03;;
76576;SDS011;65441;44.748;37.600;2024-03-02T10:32:14;14.18;;;5.55;;
76576;SDS011;65441;44.748;37.600;2024-03-02T10:34:44;15.05;;;5.55;;
76576;SDS011;65441;44.748;37.600;2024-03-02T10:37:16;17.35;;;6.25;;
76576;SDS011;65441;44.748;37.600;2024-03-02T10:39:45;18.73;;;6.93;;
76576;SDS011;65441;44.748;37.600;2024-03-02T10:42:14;17.92;;;6.75;;
76576;SDS011;65441;44.748;37.600;2024-03-02T10:44:43;18.70;;;7.38;;
76576;SDS011;65441;44.748;37.600;2024-03-02T10:47:14;14.05;;;5.50;;
76576;SDS011;65441;44.748;37.600;2024-03-02T10:49:47;17.40;;;6.32;;
76576;SDS011;65441;44.748;37.600;2024-03-02T10:52:21;17.02;;;6.78;;
76576;SDS011;65441;44.748;37.600;2024-03-02T10:54:50;19.33;;;7.20;;
76576;SDS011;65441;44.748;37.600;2024-03-02T10:57:21;14.10;;;5.72;;
76576;SDS011;65441;44.748;37.600;2024-03-02T10:59:51;16.10;;;6.68;;
76576;SDS011;65441;44.748;37.600;2024-03-02T11:04:51;16.73;;;6.63;;
76576;SDS011;65441;44.748;37.600;2024-03-02T11:07:24;16.40;;;6.85;;
76576;SDS011;65441;44.748;37.600;2024-03-02T11:09:56;21.88;;;6.30;;
76576;SDS011;65441;44.748;37.600;2024-03-02T11:12:28;19.25;;;6.47;;
76576;SDS011;65441;44.748;37.600;2024-03-02T11:14:58;16.48;;;6.57;;
76576;SDS011;65441;44.748;37.600;2024-03-02T11:17:29;17.95;;;5.65;;
76576;SDS011;65441;44.748;37.600;2024-03-02T11:19:57;14.68;;;6.05;;
76576;SDS011;65441;44.748;37.600;2024-03-02T11:22:28;17.92;;;7.00;;
76576;SDS011;65441;44.748;37.600;2024-03-02T11:24:56;15.20;;;6.22;;
76576;SDS011;65441;44.748;37.600;2024-03-02T11:33:22;15.98;;;5.82;;
76576;SDS011;65441;44.748;37.600;2024-03-02T11:35:53;12.80;;;5.57;;
76576;SDS011;65441;44.748;37.600;2024-03-02T11:38:31;18.33;;;6.18;;
76576;SDS011;65441;44.748;37.600;2024-03-02T11:41:00;18.45;;;6.30;;
76576;SDS011;65441;44.748;37.600;2024-03-02T11:43:29;20.00;;;6.65;;
76576;SDS011;65441;44.748;37.600;2024-03-02T11:45:59;17.17;;;7.03;;
76576;SDS011;65441;44.748;37.600;2024-03-02T11:48:30;22.60;;;6.70;;
76576;SDS011;65441;44.748;37.600;2024-03-02T11:50:59;22.67;;;6.20;;
76576;SDS011;65441;44.748;37.600;2024-03-02T11:53:28;14.60;;;6.40;;
76576;SDS011;65441;44.748;37.600;2024-03-02T11:55:59;19.25;;;6.70;;
76576;SDS011;65441;44.748;37.600;2024-03-02T11:58:32;15.15;;;5.38;;
76576;SDS011;65441;44.748;37.600;2024-03-02T12:01:04;21.13;;;6.10;;
76576;SDS011;65441;44.748;37.600;2024-03-02T12:03:32;14.32;;;6.93;;
76576;SDS011;65441;44.748;37.600;2024-03-02T12:06:01;17.92;;;6.70;;
76576;SDS011;65441;44.748;37.600;2024-03-02T12:08:30;18.17;;;7.03;;
76576;SDS011;65441;44.748;37.600;2024-03-02T12:11:00;20.35;;;7.20;;
76576;SDS011;65441;44.748;37.600;2024-03-02T12:13:29;18.70;;;7.38;;
76576;SDS011;65441;44.748;37.600;2024-03-02T12:15:58;18.85;;;8.23;;
76576;SDS011;65441;44.748;37.600;2024-03-02T12:18:26;19.50;;;8.07;;
76576;SDS011;65441;44.748;37.600;2024-03-02T12:20:54;21.15;;;8.13;;
76576;SDS011;65441;44.748;37.600;2024-03-02T12:23:23;21.45;;;8.13;;
76576;SDS011;65441;44.748;37.600;2024-03-02T12:25:51;20.63;;;8.50;;
76576;SDS011;65441;44.748;37.600;2024-03-02T12:28:21;21.17;;;7.85;;
76576;SDS011;65441;44.748;37.600;2024-03-02T12:30:49;18.08;;;8.23;;
76576;SDS011;65441;44.748;37.600;2024-03-02T12:33:20;18.33;;;7.90;;
76576;SDS011;65441;44.748;37.600;2024-03-02T12:35:49;20.63;;;9.10;;
76576;SDS011;65441;44.748;37.600;2024-03-02T12:38:19;24.88;;;8.40;;
76576;SDS011;65441;44.748;37.600;2024-03-02T12:40:51;21.92;;;8.20;;
76576;SDS011;65441;44.748;37.600;2024-03-02T12:43:40;17.05;;;8.82;;
76576;SDS011;65441;44.748;37.600;2024-03-02T12:46:08;21.50;;;8.57;;
76576;SDS011;65441;44.748;37.600;2024-03-02T12:48:36;20.33;;;8.27;;
76576;SDS011;65441;44.748;37.600;2024-03-02T12:51:07;23.35;;;9.13;;
76576;SDS011;65441;44.748;37.600;2024-03-02T12:53:38;19.13;;;9.52;;
76576;SDS011;65441;44.748;37.600;2024-03-02T12:56:07;21.58;;;9.05;;
76576;SDS011;65441;44.748;37.600;2024-03-02T12:58:40;21.13;;;8.68;;
76576;SDS011;65441;44.748;37.600;2024-03-02T13:01:08;22.17;;;10.48;;
76576;SDS011;65441;44.748;37.600;2024-03-02T13:03:37;21.15;;;9.73;;
76576;SDS011;65441;44.748;37.600;2024-03-02T13:06:05;21.15;;;10.23;;
76576;SDS011;65441;44.748;37.600;2024-03-02T13:08:34;23.17;;;10.13;;
76576;SDS011;65441;44.748;37.600;2024-03-02T13:11:03;22.38;;;9.38;;
76576;SDS011;65441;44.748;37.600;2024-03-02T13:13:33;23.00;;;11.57;;
76576;SDS011;65441;44.748;37.600;2024-03-02T13:16:03;22.92;;;10.52;;
76576;SDS011;65441;44.748;37.600;2024-03-02T13:18:33;25.38;;;10.75;;
76576;SDS011;65441;44.748;37.600;2024-03-02T13:21:01;22.73;;;10.75;;
76576;SDS011;65441;44.748;37.600;2024-03-02T13:23:29;28.38;;;11.25;;
76576;SDS011;65441;44.748;37.600;2024-03-02T13:25:58;29.30;;;12.00;;
76576;SDS011;65441;44.748;37.600;2024-03-02T13:28:26;30.08;;;11.93;;
76576;SDS011;65441;44.748;37.600;2024-03-02T13:30:54;27.27;;;10.65;;
76576;SDS011;65441;44.748;37.600;2024-03-02T13:33:24;26.38;;;12.52;;
76576;SDS011;65441;44.748;37.600;2024-03-02T13:35:52;28.27;;;11.63;;
76576;SDS011;65441;44.748;37.600;2024-03-02T13:38:21;30.45;;;12.32;;
76576;SDS011;65441;44.748;37.600;2024-03-02T13:40:49;29.92;;;12.63;;
76576;SDS011;65441;44.748;37.600;2024-03-02T13:43:19;32.40;;;13.85;;
76576;SDS011;65441;44.748;37.600;2024-03-02T13:45:47;31.67;;;12.93;;
76576;SDS011;65441;44.748;37.600;2024-03-02T13:48:15;29.17;;;12.82;;
76576;SDS011;65441;44.748;37.600;2024-03-02T13:50:45;24.90;;;12.52;;
76576;SDS011;65441;44.748;37.600;2024-03-02T13:53:13;25.33;;;11.70;;
76576;SDS011;65441;44.748;37.600;2024-03-02T13:55:41;24.52;;;11.23;;
76576;SDS011;65441;44.748;37.600;2024-03-02T13:58:09;28.73;;;13.57;;
76576;SDS011;65441;44.748;37.600;2024-03-02T14:00:38;28.27;;;12.60;;
76576;SDS011;65441;44.748;37.600;2024-03-02T14:03:06;29.50;;;12.70;;
76576;SDS011;65441;44.748;37.600;2024-03-02T14:05:34;28.50;;;12.63;;
76576;SDS011;65441;44.748;37.600;2024-03-02T14:08:05;28.77;;;11.32;;
76576;SDS011;65441;44.748;37.600;2024-03-02T14:10:33;29.08;;;12.60;;
76576;SDS011;65441;44.748;37.600;2024-03-02T14:13:01;29.33;;;13.20;;
76576;SDS011;65441;44.748;37.600;2024-03-02T14:15:29;30.35;;;13.13;;
76576;SDS011;65441;44.748;37.600;2024-03-02T14:17:57;32.40;;;13.13;;
76576;SDS011;65441;44.748;37.600;2024-03-02T14:20:26;26.50;;;9.98;;
76576;SDS011;65441;44.748;37.600;2024-03-02T14:22:54;32.10;;;13.13;;
76576;SDS011;65441;44.748;37.600;2024-03-02T14:25:23;26.65;;;11.88;;
76576;SDS011;65441;44.748;37.600;2024-03-02T14:27:51;30.50;;;13.27;;
76576;SDS011;65441;44.748;37.600;2024-03-02T14:30:20;35.65;;;13.07;;
76576;SDS011;65441;44.748;37.600;2024-03-02T14:32:48;29.23;;;12.63;;
76576;SDS011;65441;44.748;37.600;2024-03-02T14:35:17;29.40;;;12.40;;
76576;SDS011;65441;44.748;37.600;2024-03-02T14:37:45;27.48;;;11.35;;
76576;SDS011;65441;44.748;37.600;2024-03-02T14:40:13;32.15;;;12.95;;
76576;SDS011;65441;44.748;37.600;2024-03-02T14:42:43;35.08;;;12.60;;
76576;SDS011;65441;44.748;37.600;2024-03-02T14:45:14;29.65;;;11.88;;